Hlavní strana
METAR-TAF:

METAR-TAF

Letiště :

Aydın, Turecko

zeměpisná šířka: 37-48-54N, zeměpisná délka: 27-53-21E, výška: 31 m

Aktuální stav počasí

Zpráva byla vytvořena před 38 minutami, v 04:50 UTC
vítr z různých směrů 2 kt
Teplota -1°C
Vlhkost vzduchu 93%
Tlak 1034 hPa
Viditelnost 10 km a více
Žádná oblačnost pod 1500 m, nevyskytují se cumulonimby.

METAR: LTBD 210450Z VRB02KT CAVOK M01/M02 Q1034

Čas: 08:28 (05:28 UTC)

Předpověď počasí

Zpráva byla vytvořena před 3 hodinami a 48 minutami, v 01:40 UTC
Předpověď platná od 21 v 03 UTC do 21 v 12 UTC
vítr z různých směrů 2 kt
Viditelnost 10 km a více
Žádná oblačnost pod 1500 m, nevyskytují se cumulonimby.
Dočasný
od 21 v 08 UTC do 21 v 12 UTC
Východní vítr 12 kt

TAF: LTBD 210140Z 2103/2112 VRB02KT CAVOK TEMPO 2108/2112 09012KT

Stav a předpovědi počasí z více než 4 000 letišť (zprávy METAR a TAF).

Červené a žluté tečky na mapě představují dostupné meteorologické stanice.

Když kurzor umístíte na tečku, zobrazí se název stanice.

Pak kliknutím zobrazíte stav a předpověď počasí.

Chcete-li změnit mapu, kliknutím na zelené tlačítko se znaménkem +mapu přiblížíte, kliknutím na zelené tlačítko se znaménkem – mapu oddálíte a kliknutím na zelené šipky přejdete na sousední mapy.


METAR-TAF: